createdAt,value
2019-04-03T00:01:11.605Z,1015.46
2019-04-03T00:01:58.629Z,1015.49
2019-04-03T00:02:58.620Z,1015.43
2019-04-03T00:03:58.606Z,1015.46
2019-04-03T00:04:58.608Z,1015.48
2019-04-03T00:05:58.578Z,1015.49
2019-04-03T00:06:58.578Z,1015.48
2019-04-03T00:07:58.557Z,1015.51
2019-04-03T00:08:58.584Z,1015.48
2019-04-03T00:09:58.677Z,1015.49
2019-04-03T00:10:58.526Z,1015.50
2019-04-03T00:11:58.634Z,1015.59
2019-04-03T00:12:58.505Z,1015.53
2019-04-03T00:13:58.503Z,1015.54
2019-04-03T00:14:58.518Z,1015.55
2019-04-03T00:15:58.471Z,1015.53
2019-04-03T00:16:58.463Z,1015.56
2019-04-03T00:17:58.450Z,1015.52
2019-04-03T00:18:58.445Z,1015.55
2019-04-03T00:19:58.441Z,1015.56
2019-04-03T00:20:58.457Z,1015.51
2019-04-03T00:21:58.411Z,1015.54
2019-04-03T00:22:58.460Z,1015.51
2019-04-03T00:23:58.390Z,1015.52
2019-04-03T00:24:58.383Z,1015.50
2019-04-03T00:25:58.372Z,1015.54
2019-04-03T00:26:58.371Z,1015.49
2019-04-03T00:27:58.344Z,1015.52
2019-04-03T00:28:58.333Z,1015.54
2019-04-03T00:29:58.324Z,1015.42
2019-04-03T00:30:58.316Z,1015.58
2019-04-03T00:32:11.028Z,1015.51
2019-04-03T00:32:58.983Z,1015.51
2019-04-03T00:33:58.280Z,1015.55
2019-04-03T00:34:58.347Z,1015.60
2019-04-03T00:35:58.258Z,1015.49
2019-04-03T00:36:58.264Z,1015.56
2019-04-03T00:37:58.242Z,1015.58
2019-04-03T00:38:58.231Z,1015.55
2019-04-03T00:39:58.217Z,1015.59
2019-04-03T00:40:58.206Z,1015.60
2019-04-03T00:41:58.199Z,1015.53
2019-04-03T00:42:58.226Z,1015.51
2019-04-03T00:43:58.176Z,1015.55
2019-04-03T00:44:58.274Z,1015.52
2019-04-03T00:45:58.149Z,1015.52
2019-04-03T00:46:58.149Z,1015.52
2019-04-03T00:47:58.131Z,1015.50
2019-04-03T00:48:58.191Z,1015.46
2019-04-03T00:49:58.110Z,1015.48
2019-04-03T00:50:58.140Z,1015.52
2019-04-03T00:51:58.135Z,1015.52
2019-04-03T00:52:58.084Z,1015.44
2019-04-03T00:53:58.238Z,1015.49
2019-04-03T00:54:58.054Z,1015.45
2019-04-03T00:55:58.045Z,1015.43
2019-04-03T00:56:58.046Z,1015.46
2019-04-03T00:57:58.109Z,1015.45
2019-04-03T00:58:58.023Z,1015.45
2019-04-03T00:59:58.019Z,1015.47
2019-04-03T01:00:58.017Z,1015.48
2019-04-03T01:01:57.984Z,1015.48
2019-04-03T01:03:10.899Z,1015.48
2019-04-03T01:03:58.873Z,1015.46
2019-04-03T01:04:58.800Z,1015.45
2019-04-03T01:05:58.345Z,1015.48
2019-04-03T01:06:58.677Z,1015.48
2019-04-03T01:07:59.910Z,1015.52
2019-04-03T01:08:59.433Z,1015.51
2019-04-03T01:09:59.532Z,1015.49
2019-04-03T01:11:00.034Z,1015.53
2019-04-03T01:12:00.133Z,1015.50
2019-04-03T01:12:57.869Z,1015.48
2019-04-03T01:13:57.867Z,1015.50
2019-04-03T01:14:57.849Z,1015.50
2019-04-03T01:15:57.834Z,1015.51
2019-04-03T01:16:58.047Z,1015.49
2019-04-03T01:17:57.815Z,1015.44
2019-04-03T01:18:57.808Z,1015.50
2019-04-03T01:19:57.986Z,1015.49
2019-04-03T01:20:57.778Z,1015.44
2019-04-03T01:21:57.818Z,1015.43
2019-04-03T01:22:57.761Z,1015.38
2019-04-03T01:23:57.747Z,1015.44
2019-04-03T01:24:57.744Z,1015.41
2019-04-03T01:25:57.733Z,1015.42
2019-04-03T01:26:57.813Z,1015.43
2019-04-03T01:27:57.744Z,1015.41
2019-04-03T01:28:57.696Z,1015.39
2019-04-03T01:29:57.683Z,1015.33
2019-04-03T01:30:57.805Z,1015.34
2019-04-03T01:31:57.666Z,1015.29
2019-04-03T01:32:57.783Z,1015.37
2019-04-03T01:34:11.118Z,1015.30
2019-04-03T01:34:57.636Z,1015.35
2019-04-03T01:35:57.625Z,1015.34
2019-04-03T01:36:57.833Z,1015.32
2019-04-03T01:37:57.606Z,1015.36
2019-04-03T01:38:57.590Z,1015.35
2019-04-03T01:39:57.629Z,1015.37
2019-04-03T01:40:57.628Z,1015.37
2019-04-03T01:41:57.559Z,1015.39
2019-04-03T01:42:57.547Z,1015.35
2019-04-03T01:43:57.538Z,1015.42
2019-04-03T01:44:57.536Z,1015.39
2019-04-03T01:45:57.559Z,1015.40
2019-04-03T01:46:58.090Z,1015.37
2019-04-03T01:47:58.464Z,1015.45
2019-04-03T01:48:58.642Z,1015.42
2019-04-03T01:49:58.574Z,1015.36
2019-04-03T01:50:59.410Z,1015.41
2019-04-03T01:51:58.869Z,1015.39
2019-04-03T01:52:57.599Z,1015.43
2019-04-03T01:53:57.435Z,1015.44
2019-04-03T01:54:57.426Z,1015.41
2019-04-03T01:55:57.410Z,1015.35
2019-04-03T01:56:57.397Z,1015.30
2019-04-03T01:57:57.399Z,1015.37
2019-04-03T01:58:57.387Z,1015.36
2019-04-03T01:59:57.398Z,1015.41
2019-04-03T02:00:57.360Z,1015.38
2019-04-03T02:01:57.444Z,1015.37
2019-04-03T02:02:57.381Z,1015.32
2019-04-03T02:03:57.325Z,1015.31
2019-04-03T02:05:12.202Z,1015.31
2019-04-03T02:05:57.303Z,1015.27
2019-04-03T02:06:57.298Z,1015.27
2019-04-03T02:07:57.291Z,1015.27
2019-04-03T02:08:57.322Z,1015.21
2019-04-03T02:09:57.276Z,1015.27
2019-04-03T02:10:57.253Z,1015.28
2019-04-03T02:11:57.386Z,1015.28
2019-04-03T02:12:57.237Z,1015.22
2019-04-03T02:13:57.227Z,1015.23
2019-04-03T02:14:57.437Z,1015.18
2019-04-03T02:15:57.259Z,1015.16
2019-04-03T02:16:57.191Z,1015.15
2019-04-03T02:17:57.178Z,1015.16
2019-04-03T02:18:57.169Z,1015.16
2019-04-03T02:19:57.176Z,1015.20
2019-04-03T02:20:58.073Z,1015.22
2019-04-03T02:21:58.563Z,1015.20
2019-04-03T02:22:59.655Z,1015.12
2019-04-03T02:23:57.113Z,1015.11
2019-04-03T02:24:58.053Z,1015.08
2019-04-03T02:25:57.099Z,1015.07
2019-04-03T02:26:57.135Z,1015.11
2019-04-03T02:27:57.071Z,1015.11
2019-04-03T02:28:57.101Z,1015.12
2019-04-03T02:29:57.048Z,1015.15
2019-04-03T02:30:57.042Z,1015.08
2019-04-03T02:31:57.078Z,1015.08
2019-04-03T02:32:57.572Z,1015.09
2019-04-03T02:33:57.016Z,1015.13
2019-04-03T02:34:57.000Z,1015.13
2019-04-03T02:36:11.445Z,1015.14
2019-04-03T02:36:56.986Z,1015.10
2019-04-03T02:37:57.004Z,1015.16
2019-04-03T02:38:56.959Z,1015.11
2019-04-03T02:40:00.338Z,1015.00
2019-04-03T02:40:57.169Z,1014.98
2019-04-03T02:41:56.929Z,1014.96
2019-04-03T02:42:56.912Z,1015.00
2019-04-03T02:43:56.916Z,1014.97
2019-04-03T02:44:56.896Z,1015.03
2019-04-03T02:45:57.395Z,1015.03
2019-04-03T02:46:59.559Z,1015.03
2019-04-03T02:47:56.866Z,1015.01
2019-04-03T02:48:56.852Z,1015.03
2019-04-03T02:49:56.869Z,1015.02
2019-04-03T02:50:56.836Z,1015.02
2019-04-03T02:51:56.821Z,1015.00
2019-04-03T02:52:58.694Z,1015.01
2019-04-03T02:53:56.803Z,1015.03
2019-04-03T02:54:57.077Z,1014.97
2019-04-03T02:55:56.785Z,1015.00
2019-04-03T02:56:57.093Z,1015.00
2019-04-03T02:57:56.753Z,1015.01
2019-04-03T02:58:56.816Z,1015.02
2019-04-03T02:59:58.429Z,1015.05
2019-04-03T03:00:56.893Z,1015.01
2019-04-03T03:01:56.737Z,1015.00
2019-04-03T03:02:56.709Z,1014.95
2019-04-03T03:03:56.692Z,1014.98
2019-04-03T03:04:56.961Z,1014.94
2019-04-03T03:05:59.346Z,1014.96
2019-04-03T03:07:10.071Z,1014.96
2019-04-03T03:07:56.655Z,1015.00
2019-04-03T03:08:56.638Z,1014.97
2019-04-03T03:09:56.637Z,1014.97
2019-04-03T03:10:56.658Z,1014.93
2019-04-03T03:11:57.226Z,1014.89
2019-04-03T03:12:59.935Z,1014.94
2019-04-03T03:13:56.593Z,1014.99
2019-04-03T03:14:56.574Z,1014.97
2019-04-03T03:15:56.601Z,1014.88
2019-04-03T03:16:56.599Z,1014.88
2019-04-03T03:17:56.545Z,1014.90
2019-04-03T03:18:59.875Z,1014.89
2019-04-03T03:19:56.525Z,1014.88
2019-04-03T03:20:56.516Z,1014.90
2019-04-03T03:21:56.506Z,1014.90
2019-04-03T03:22:56.497Z,1014.89
2019-04-03T03:23:57.235Z,1014.86
2019-04-03T03:24:59.740Z,1014.88
2019-04-03T03:25:56.457Z,1014.87
2019-04-03T03:26:56.481Z,1014.95
2019-04-03T03:27:56.444Z,1014.93
2019-04-03T03:28:56.787Z,1014.92
2019-04-03T03:29:58.629Z,1014.91
2019-04-03T03:31:02.067Z,1014.88
2019-04-03T03:32:08.233Z,1014.90
2019-04-03T03:33:21.816Z,1014.93
2019-04-03T03:34:02.926Z,1014.92
2019-04-03T03:35:09.829Z,1014.90
2019-04-03T03:35:57.877Z,1014.87
2019-04-03T03:37:00.595Z,1014.88
2019-04-03T03:39:11.640Z,1014.95
2019-04-03T03:40:10.818Z,1014.97
2019-04-03T03:41:10.810Z,1014.95
2019-04-03T03:42:10.805Z,1014.99
2019-04-03T03:43:11.062Z,1014.95
2019-04-03T03:44:11.759Z,1014.97
2019-04-03T03:45:11.091Z,1014.95
2019-04-03T03:46:11.161Z,1014.96
2019-04-03T03:47:10.786Z,1014.96
2019-04-03T03:48:11.172Z,1014.96
2019-04-03T03:49:10.737Z,1015.01
2019-04-03T03:50:10.723Z,1014.94
2019-04-03T03:51:10.717Z,1015.00
2019-04-03T03:52:11.018Z,1015.01
2019-04-03T03:53:12.516Z,1014.90
2019-04-03T03:54:10.813Z,1014.98
2019-04-03T03:55:10.660Z,1014.87
2019-04-03T03:56:10.646Z,1014.92
2019-04-03T03:57:10.643Z,1014.93
2019-04-03T03:58:12.555Z,1014.85
2019-04-03T03:59:10.612Z,1014.86
2019-04-03T04:00:10.614Z,1014.89
2019-04-03T04:01:10.780Z,1014.83
2019-04-03T04:02:10.585Z,1014.83
2019-04-03T04:03:11.630Z,1014.79
2019-04-03T04:04:13.218Z,1014.81
2019-04-03T04:05:11.765Z,1014.78
2019-04-03T04:06:10.537Z,1014.81
2019-04-03T04:07:10.530Z,1014.79
2019-04-03T04:08:11.595Z,1014.75
2019-04-03T04:10:33.313Z,1014.84
2019-04-03T04:11:31.197Z,1014.74
2019-04-03T04:12:30.124Z,1014.69
2019-04-03T04:13:30.286Z,1014.74
2019-04-03T04:14:30.114Z,1014.73
2019-04-03T04:15:31.016Z,1014.72
2019-04-03T04:16:30.091Z,1014.67
2019-04-03T04:17:30.087Z,1014.70
2019-04-03T04:18:30.125Z,1014.68
2019-04-03T04:19:31.057Z,1014.69
2019-04-03T04:20:30.145Z,1014.62
2019-04-03T04:21:30.351Z,1014.67
2019-04-03T04:22:30.287Z,1014.74
2019-04-03T04:23:30.013Z,1014.75
2019-04-03T04:24:30.212Z,1014.77
2019-04-03T04:25:31.083Z,1014.67
2019-04-03T04:26:31.807Z,1014.67
2019-04-03T04:27:33.583Z,1014.66
2019-04-03T04:28:29.994Z,1014.66
2019-04-03T04:29:31.022Z,1014.58
2019-04-03T04:30:30.896Z,1014.58
2019-04-03T04:31:30.905Z,1014.65
2019-04-03T04:32:30.060Z,1014.65
2019-04-03T04:33:29.930Z,1014.69
2019-04-03T04:34:29.920Z,1014.70
2019-04-03T04:35:29.925Z,1014.67
2019-04-03T04:36:29.941Z,1014.70
2019-04-03T04:37:30.091Z,1014.67
2019-04-03T04:38:29.937Z,1014.75
2019-04-03T04:39:29.833Z,1014.71
2019-04-03T04:40:37.428Z,1014.63
2019-04-03T04:41:32.217Z,1014.65
2019-04-03T04:42:29.971Z,1014.61
2019-04-03T04:43:30.021Z,1014.61
2019-04-03T04:44:29.801Z,1014.62
2019-04-03T04:45:29.774Z,1014.61
2019-04-03T04:46:29.761Z,1014.75
2019-04-03T04:47:29.765Z,1014.81
2019-04-03T04:48:29.804Z,1014.82
2019-04-03T04:49:29.883Z,1014.81
2019-04-03T04:50:29.712Z,1014.81
2019-04-03T04:51:29.705Z,1014.85
2019-04-03T04:52:29.702Z,1014.83
2019-04-03T04:53:30.249Z,1014.78
2019-04-03T04:54:30.633Z,1014.81
2019-04-03T04:55:31.233Z,1014.88
2019-04-03T04:56:29.663Z,1014.86
2019-04-03T04:57:29.649Z,1014.79
2019-04-03T04:58:29.629Z,1014.85
2019-04-03T04:59:29.617Z,1014.89
2019-04-03T05:00:30.317Z,1014.85
2019-04-03T05:01:29.631Z,1014.90
2019-04-03T05:02:29.592Z,1014.82
2019-04-03T05:03:29.596Z,1014.81
2019-04-03T05:04:29.558Z,1014.92
2019-04-03T05:05:31.170Z,1014.93
2019-04-03T05:06:29.972Z,1014.98
2019-04-03T05:07:30.833Z,1014.94
2019-04-03T05:08:30.833Z,1014.89
2019-04-03T05:09:29.502Z,1014.94
2019-04-03T05:10:29.606Z,1014.97
2019-04-03T05:11:41.963Z,1015.00
2019-04-03T05:12:29.673Z,1015.03
2019-04-03T05:13:29.463Z,1014.90
2019-04-03T05:14:29.456Z,1014.94
2019-04-03T05:15:29.439Z,1014.97
2019-04-03T05:16:29.426Z,1014.96
2019-04-03T05:17:29.492Z,1014.93
2019-04-03T05:18:29.645Z,1014.88
2019-04-03T05:19:29.391Z,1014.92
2019-04-03T05:20:29.403Z,1014.88
2019-04-03T05:21:29.473Z,1014.86
2019-04-03T05:22:29.442Z,1014.89
2019-04-03T05:23:29.381Z,1014.95
2019-04-03T05:24:29.574Z,1014.86
2019-04-03T05:25:29.841Z,1014.89
2019-04-03T05:26:31.911Z,1014.89
2019-04-03T05:27:29.329Z,1014.92
2019-04-03T05:28:29.293Z,1014.83
2019-04-03T05:29:29.291Z,1014.85
2019-04-03T05:30:29.334Z,1014.84
2019-04-03T05:31:29.266Z,1014.86
2019-04-03T05:32:29.244Z,1014.93
2019-04-03T05:33:29.251Z,1014.90
2019-04-03T05:34:29.232Z,1014.89
2019-04-03T05:35:29.210Z,1014.90
2019-04-03T05:36:29.402Z,1014.86
2019-04-03T05:37:29.187Z,1014.84
2019-04-03T05:38:29.219Z,1014.87
2019-04-03T05:39:29.210Z,1014.85
2019-04-03T05:40:29.282Z,1014.81
2019-04-03T05:41:29.385Z,1014.87
2019-04-03T05:42:41.608Z,1014.81
2019-04-03T05:43:30.844Z,1014.80
2019-04-03T05:44:29.110Z,1014.85
2019-04-03T05:45:29.222Z,1014.83
2019-04-03T05:46:29.104Z,1014.84
2019-04-03T05:47:29.239Z,1014.81
2019-04-03T05:48:29.119Z,1014.83
2019-04-03T05:49:29.247Z,1014.86
2019-04-03T05:50:29.083Z,1014.85
2019-04-03T05:51:29.753Z,1014.84
2019-04-03T05:52:29.082Z,1014.92
2019-04-03T05:53:29.217Z,1014.85
2019-04-03T05:54:29.064Z,1014.86
2019-04-03T05:55:29.038Z,1014.87
2019-04-03T05:56:29.055Z,1014.86
2019-04-03T05:57:29.609Z,1014.90
2019-04-03T05:58:28.956Z,1014.90
2019-04-03T05:59:32.681Z,1014.88
2019-04-03T06:00:28.937Z,1014.95
2019-04-03T06:01:29.069Z,1014.96
2019-04-03T06:02:28.967Z,1014.95
2019-04-03T06:03:40.458Z,1014.93
2019-04-03T06:04:29.885Z,1014.95
2019-04-03T06:05:29.027Z,1014.91
2019-04-03T06:06:28.867Z,1014.96
2019-04-03T06:07:28.861Z,1014.95
2019-04-03T06:08:29.170Z,1014.93
2019-04-03T06:09:28.870Z,1015.01
2019-04-03T06:10:31.616Z,1015.00
2019-04-03T06:11:28.802Z,1014.95
2019-04-03T06:12:28.817Z,1014.98
2019-04-03T06:13:42.157Z,1015.00
2019-04-03T06:14:29.509Z,1015.04
2019-04-03T06:15:28.793Z,1015.02
2019-04-03T06:16:28.781Z,1015.01
2019-04-03T06:17:28.845Z,1015.02
2019-04-03T06:18:31.588Z,1014.95
2019-04-03T06:19:28.768Z,1014.96
2019-04-03T06:20:28.707Z,1015.00
2019-04-03T06:21:28.717Z,1014.99
2019-04-03T06:22:29.023Z,1015.00
2019-04-03T06:23:28.672Z,1015.00
2019-04-03T06:24:28.965Z,1014.96
2019-04-03T06:25:30.486Z,1015.00
2019-04-03T06:26:28.769Z,1014.91
2019-04-03T06:27:29.624Z,1015.04
2019-04-03T06:28:29.614Z,1015.00
2019-04-03T06:29:28.614Z,1015.03
2019-04-03T06:30:28.620Z,1014.95
2019-04-03T06:31:29.030Z,1015.07
2019-04-03T06:32:29.217Z,1015.07
2019-04-03T06:33:31.324Z,1015.11
2019-04-03T06:34:28.555Z,1015.01
2019-04-03T06:35:28.548Z,1015.04
2019-04-03T06:36:28.675Z,1015.05
2019-04-03T06:37:28.689Z,1015.09
2019-04-03T06:38:28.729Z,1015.05
2019-04-03T06:39:31.214Z,1015.03
2019-04-03T06:40:28.626Z,1015.07
2019-04-03T06:41:28.482Z,1015.04
2019-04-03T06:42:28.603Z,1015.00
2019-04-03T06:43:30.420Z,1015.04
2019-04-03T06:44:40.664Z,1015.09
2019-04-03T06:45:28.742Z,1015.10
2019-04-03T06:46:29.192Z,1014.98
2019-04-03T06:47:28.417Z,1014.97
2019-04-03T06:48:28.540Z,1015.02
2019-04-03T06:49:28.471Z,1014.96
2019-04-03T06:50:28.546Z,1014.99
2019-04-03T06:51:36.098Z,1015.00
2019-04-03T06:52:28.648Z,1015.00
2019-04-03T06:53:29.094Z,1015.05
2019-04-03T06:54:31.155Z,1015.04
2019-04-03T06:55:28.321Z,1015.00
2019-04-03T06:56:28.350Z,1015.03
2019-04-03T06:57:28.297Z,1015.05
2019-04-03T06:58:37.232Z,1015.10
2019-04-03T06:59:29.425Z,1015.06
2019-04-03T07:00:28.255Z,1014.98
2019-04-03T07:01:28.422Z,1015.13
2019-04-03T07:02:31.406Z,1015.03
2019-04-03T07:03:28.278Z,1014.99
2019-04-03T07:04:28.218Z,1015.04
2019-04-03T07:05:28.430Z,1015.07
2019-04-03T07:06:28.196Z,1015.04
2019-04-03T07:07:34.156Z,1015.10
2019-04-03T07:08:34.615Z,1015.05
2019-04-03T07:09:35.620Z,1015.08
2019-04-03T07:10:29.142Z,1015.06
2019-04-03T07:11:28.142Z,1015.09
2019-04-03T07:12:28.217Z,1015.06
2019-04-03T07:13:29.730Z,1014.98
2019-04-03T07:14:28.117Z,1015.04
2019-04-03T07:15:40.574Z,1015.03
2019-04-03T07:16:28.572Z,1015.11
2019-04-03T07:17:29.785Z,1015.01
2019-04-03T07:18:28.071Z,1015.02
2019-04-03T07:19:28.046Z,1015.07
2019-04-03T07:20:28.043Z,1015.07
2019-04-03T07:21:28.124Z,1015.05
2019-04-03T07:22:28.346Z,1014.98
2019-04-03T07:23:29.895Z,1015.00
2019-04-03T07:24:28.047Z,1015.01
2019-04-03T07:25:28.032Z,1014.96
2019-04-03T07:26:27.970Z,1014.98
2019-04-03T07:27:27.967Z,1015.08
2019-04-03T07:28:30.462Z,1014.98
2019-04-03T07:29:27.968Z,1014.95
2019-04-03T07:30:28.021Z,1014.94
2019-04-03T07:31:27.917Z,1015.01
2019-04-03T07:32:27.908Z,1014.95
2019-04-03T07:33:28.671Z,1014.96
2019-04-03T07:34:27.878Z,1014.92
2019-04-03T07:35:27.871Z,1014.88
2019-04-03T07:36:27.881Z,1014.97
2019-04-03T07:37:27.902Z,1014.87
2019-04-03T07:38:27.914Z,1014.86
2019-04-03T07:39:27.874Z,1014.91
2019-04-03T07:40:27.820Z,1014.94
2019-04-03T07:41:27.985Z,1014.91
2019-04-03T07:42:27.895Z,1014.92
2019-04-03T07:43:28.215Z,1014.88
2019-04-03T07:44:29.896Z,1014.85
2019-04-03T07:45:27.778Z,1014.87
2019-04-03T07:46:39.700Z,1014.95
2019-04-03T07:47:27.740Z,1014.89
2019-04-03T07:48:27.746Z,1014.92
2019-04-03T07:49:27.844Z,1014.94
2019-04-03T07:50:27.709Z,1014.86
2019-04-03T07:51:27.706Z,1014.77
2019-04-03T07:52:28.009Z,1014.84
2019-04-03T07:53:27.697Z,1014.89
2019-04-03T07:54:27.949Z,1014.85
2019-04-03T07:55:28.509Z,1014.87
2019-04-03T07:56:27.804Z,1014.85
2019-04-03T07:57:29.217Z,1014.80
2019-04-03T07:58:30.636Z,1014.82
2019-04-03T07:59:27.611Z,1014.79
2019-04-03T08:00:27.623Z,1014.87
2019-04-03T08:01:27.589Z,1014.77
2019-04-03T08:02:27.577Z,1014.79
2019-04-03T08:03:27.833Z,1014.78
2019-04-03T08:04:27.565Z,1014.82
2019-04-03T08:05:30.356Z,1014.79
2019-04-03T08:06:27.906Z,1014.64
2019-04-03T08:07:27.523Z,1014.71
2019-04-03T08:08:27.535Z,1014.71
2019-04-03T08:09:27.494Z,1014.73
2019-04-03T08:10:29.374Z,1014.75
2019-04-03T08:11:27.470Z,1014.68
2019-04-03T08:12:27.471Z,1014.73
2019-04-03T08:13:27.721Z,1014.68
2019-04-03T08:14:27.447Z,1014.64
2019-04-03T08:15:27.426Z,1014.70
2019-04-03T08:16:27.838Z,1014.67
2019-04-03T08:17:40.647Z,1014.65
2019-04-03T08:18:27.455Z,1014.68
2019-04-03T08:19:27.541Z,1014.74
2019-04-03T08:20:30.213Z,1014.75
2019-04-03T08:21:28.006Z,1014.70
2019-04-03T08:22:27.397Z,1014.71
2019-04-03T08:23:27.340Z,1014.71
2019-04-03T08:24:27.341Z,1014.70
2019-04-03T08:25:27.602Z,1014.67
2019-04-03T08:26:27.482Z,1014.69
2019-04-03T08:27:27.294Z,1014.72
2019-04-03T08:28:30.135Z,1014.72
2019-04-03T08:29:27.276Z,1014.68
2019-04-03T08:30:27.322Z,1014.68
2019-04-03T08:31:27.349Z,1014.66
2019-04-03T08:32:27.482Z,1014.75
2019-04-03T08:33:27.841Z,1014.66
2019-04-03T08:34:27.432Z,1014.69
2019-04-03T08:35:27.204Z,1014.68
2019-04-03T08:36:27.193Z,1014.64
2019-04-03T08:37:31.121Z,1014.59
2019-04-03T08:38:27.183Z,1014.63
2019-04-03T08:39:27.237Z,1014.61
2019-04-03T08:40:27.141Z,1014.66
2019-04-03T08:41:27.166Z,1014.63
2019-04-03T08:42:27.913Z,1014.62
2019-04-03T08:43:27.105Z,1014.62
2019-04-03T08:44:27.101Z,1014.67
2019-04-03T08:45:27.161Z,1014.58
2019-04-03T08:46:27.077Z,1014.57
2019-04-03T08:47:27.120Z,1014.59
2019-04-03T08:48:40.661Z,1014.57
2019-04-03T08:49:27.231Z,1014.59
2019-04-03T08:50:28.791Z,1014.64
2019-04-03T08:51:27.021Z,1014.52
2019-04-03T08:52:27.017Z,1014.56
2019-04-03T08:53:27.014Z,1014.57
2019-04-03T08:54:27.003Z,1014.49
2019-04-03T08:55:26.976Z,1014.49
2019-04-03T08:56:26.959Z,1014.52
2019-04-03T08:57:27.246Z,1014.53
2019-04-03T08:58:27.186Z,1014.45
2019-04-03T08:59:28.741Z,1014.51
2019-04-03T09:00:26.910Z,1014.50
2019-04-03T09:01:26.910Z,1014.49
2019-04-03T09:02:26.987Z,1014.45
2019-04-03T09:03:27.161Z,1014.43
2019-04-03T09:04:26.887Z,1014.46
2019-04-03T09:05:26.865Z,1014.47
2019-04-03T09:06:27.049Z,1014.49
2019-04-03T09:07:26.847Z,1014.36
2019-04-03T09:08:27.271Z,1014.46
2019-04-03T09:09:29.094Z,1014.47
2019-04-03T09:10:27.241Z,1014.49
2019-04-03T09:11:26.863Z,1014.42
2019-04-03T09:12:26.781Z,1014.41
2019-04-03T09:13:26.769Z,1014.42
2019-04-03T09:14:26.761Z,1014.43
2019-04-03T09:15:28.267Z,1014.45
2019-04-03T09:16:26.736Z,1014.34
2019-04-03T09:17:26.955Z,1014.44
2019-04-03T09:18:29.767Z,1014.37
2019-04-03T09:19:41.711Z,1014.41
2019-04-03T09:20:26.756Z,1014.38
2019-04-03T09:21:26.720Z,1014.35
2019-04-03T09:22:26.705Z,1014.45
2019-04-03T09:23:26.660Z,1014.42
2019-04-03T09:24:28.610Z,1014.34
2019-04-03T09:25:26.668Z,1014.32
2019-04-03T09:26:26.692Z,1014.26
2019-04-03T09:27:26.639Z,1014.25
2019-04-03T09:28:26.618Z,1014.24
2019-04-03T09:29:26.589Z,1014.28
2019-04-03T09:30:26.589Z,1014.31
2019-04-03T09:31:26.577Z,1014.27
2019-04-03T09:32:26.830Z,1014.27
2019-04-03T09:33:29.221Z,1014.24
2019-04-03T09:34:28.729Z,1014.26
2019-04-03T09:35:26.628Z,1014.28
2019-04-03T09:36:26.515Z,1014.22
2019-04-03T09:37:26.593Z,1014.26
2019-04-03T09:38:26.536Z,1014.24
2019-04-03T09:39:26.480Z,1014.25
2019-04-03T09:40:26.475Z,1014.23
2019-04-03T09:41:26.463Z,1014.19
2019-04-03T09:42:26.454Z,1014.24
2019-04-03T09:43:27.173Z,1014.18
2019-04-03T09:44:26.476Z,1014.24
2019-04-03T09:45:28.200Z,1014.23
2019-04-03T09:46:26.721Z,1014.25
2019-04-03T09:47:26.443Z,1014.26
2019-04-03T09:48:26.695Z,1014.19
2019-04-03T09:49:26.660Z,1014.17
2019-04-03T09:50:39.207Z,1014.18
2019-04-03T09:51:26.369Z,1014.26
2019-04-03T09:52:38.259Z,1014.23
2019-04-03T09:53:27.331Z,1014.24
2019-04-03T09:54:28.346Z,1014.21
2019-04-03T09:55:26.351Z,1014.19
2019-04-03T09:56:26.307Z,1014.20
2019-04-03T09:57:26.281Z,1014.12
2019-04-03T09:58:26.316Z,1014.22
2019-04-03T09:59:26.461Z,1014.20
2019-04-03T10:00:26.249Z,1014.18
2019-04-03T10:01:26.401Z,1014.15
2019-04-03T10:02:26.337Z,1014.09
2019-04-03T10:03:26.236Z,1014.10
2019-04-03T10:04:26.784Z,1014.08
2019-04-03T10:05:26.733Z,1014.15
2019-04-03T10:06:26.444Z,1014.10
2019-04-03T10:07:26.559Z,1014.06
2019-04-03T10:08:26.228Z,1014.05
2019-04-03T10:09:26.293Z,1014.04
2019-04-03T10:10:26.435Z,1014.11
2019-04-03T10:11:26.136Z,1014.04
2019-04-03T10:12:26.543Z,1014.11
2019-04-03T10:13:26.345Z,1014.03
2019-04-03T10:14:28.121Z,1014.07
2019-04-03T10:15:26.089Z,1014.02
2019-04-03T10:16:26.334Z,1014.02
2019-04-03T10:17:26.066Z,1014.02
2019-04-03T10:18:26.084Z,1014.00
2019-04-03T10:19:26.068Z,1013.91
2019-04-03T10:20:26.391Z,1014.02
2019-04-03T10:21:38.895Z,1014.01
2019-04-03T10:22:26.341Z,1014.01
2019-04-03T10:23:26.617Z,1013.97
2019-04-03T10:24:25.987Z,1013.93
2019-04-03T10:25:26.199Z,1013.91
2019-04-03T10:26:25.962Z,1013.95
2019-04-03T10:27:25.957Z,1013.91
2019-04-03T10:28:25.994Z,1013.88
2019-04-03T10:29:26.276Z,1013.97
2019-04-03T10:30:26.176Z,1013.92
2019-04-03T10:31:25.994Z,1013.89
2019-04-03T10:32:27.702Z,1013.87
2019-04-03T10:33:25.886Z,1013.86
2019-04-03T10:34:25.913Z,1013.87
2019-04-03T10:35:25.866Z,1013.79
2019-04-03T10:36:25.853Z,1013.73
2019-04-03T10:37:25.840Z,1013.81
2019-04-03T10:38:25.832Z,1013.85
2019-04-03T10:39:25.821Z,1013.81
2019-04-03T10:40:26.346Z,1013.84
2019-04-03T10:41:27.702Z,1013.85
2019-04-03T10:42:25.829Z,1013.84
2019-04-03T10:43:25.781Z,1013.84
2019-04-03T10:44:25.761Z,1013.83
2019-04-03T10:45:25.754Z,1013.86
2019-04-03T10:46:25.780Z,1013.75
2019-04-03T10:47:39.758Z,1013.76
2019-04-03T10:48:27.878Z,1013.78
2019-04-03T10:49:26.117Z,1013.81
2019-04-03T10:50:25.703Z,1013.75
2019-04-03T10:51:25.691Z,1013.87
2019-04-03T10:52:38.298Z,1013.68
2019-04-03T10:53:25.668Z,1013.77
2019-04-03T10:54:25.830Z,1013.78
2019-04-03T10:55:25.865Z,1013.67
2019-04-03T10:56:25.677Z,1013.69
2019-04-03T10:57:25.620Z,1013.76
2019-04-03T10:58:25.797Z,1013.68
2019-04-03T10:59:25.782Z,1013.71
2019-04-03T11:00:28.666Z,1013.70
2019-04-03T11:01:25.662Z,1013.66
2019-04-03T11:02:25.585Z,1013.69
2019-04-03T11:03:26.352Z,1013.69
2019-04-03T11:04:25.541Z,1013.66
2019-04-03T11:05:25.532Z,1013.71
2019-04-03T11:06:25.807Z,1013.68
2019-04-03T11:07:25.747Z,1013.66
2019-04-03T11:08:25.513Z,1013.63
2019-04-03T11:09:25.695Z,1013.66
2019-04-03T11:10:25.687Z,1013.79
2019-04-03T11:11:27.173Z,1013.66
2019-04-03T11:12:25.448Z,1013.62
2019-04-03T11:13:25.741Z,1013.63
2019-04-03T11:14:25.424Z,1013.60
2019-04-03T11:15:25.423Z,1013.57
2019-04-03T11:16:25.414Z,1013.58
2019-04-03T11:17:26.026Z,1013.59
2019-04-03T11:18:25.471Z,1013.53
2019-04-03T11:19:25.458Z,1013.57
2019-04-03T11:20:25.401Z,1013.61
2019-04-03T11:21:25.430Z,1013.54
2019-04-03T11:22:25.604Z,1013.61
2019-04-03T11:23:43.527Z,1013.58
2019-04-03T11:24:26.729Z,1013.53
2019-04-03T11:25:25.319Z,1013.53
2019-04-03T11:26:25.614Z,1013.51
2019-04-03T11:27:40.400Z,1013.59
2019-04-03T11:28:26.291Z,1013.56
2019-04-03T11:29:25.276Z,1013.61
2019-04-03T11:30:25.541Z,1013.59
2019-04-03T11:31:28.213Z,1013.60
2019-04-03T11:32:25.271Z,1013.59
2019-04-03T11:33:25.571Z,1013.57
2019-04-03T11:34:25.220Z,1013.54
2019-04-03T11:35:25.249Z,1013.55
2019-04-03T11:36:29.544Z,1013.44
2019-04-03T11:37:26.326Z,1013.40
2019-04-03T11:38:28.214Z,1013.45
2019-04-03T11:39:25.307Z,1013.51
2019-04-03T11:40:25.658Z,1013.49
2019-04-03T11:41:25.131Z,1013.38
2019-04-03T11:42:28.688Z,1013.37
2019-04-03T11:43:25.293Z,1013.33
2019-04-03T11:44:25.106Z,1013.41
2019-04-03T11:45:25.083Z,1013.39
2019-04-03T11:46:25.133Z,1013.41
2019-04-03T11:47:25.067Z,1013.41
2019-04-03T11:48:27.087Z,1013.42
2019-04-03T11:49:25.042Z,1013.42
2019-04-03T11:50:25.438Z,1013.40
2019-04-03T11:51:25.384Z,1013.30
2019-04-03T11:52:25.094Z,1013.31
2019-04-03T11:53:24.994Z,1013.39
2019-04-03T11:54:39.508Z,1013.32
2019-04-03T11:55:24.973Z,1013.38
2019-04-03T11:56:25.078Z,1013.30
2019-04-03T11:57:26.754Z,1013.22
2019-04-03T11:58:24.952Z,1013.32
2019-04-03T11:59:24.981Z,1013.30
2019-04-03T12:00:24.923Z,1013.22
2019-04-03T12:01:25.145Z,1013.18
2019-04-03T12:02:25.048Z,1013.24
2019-04-03T12:03:25.196Z,1013.24
2019-04-03T12:04:24.879Z,1013.24
2019-04-03T12:05:24.931Z,1013.21
2019-04-03T12:06:25.192Z,1013.28
2019-04-03T12:07:25.529Z,1013.16
2019-04-03T12:08:25.932Z,1013.14